sensor_id;sensor_type;location;lat;lon;timestamp;pressure;altitude;pressure_sealevel;temperature;humidity
70229;BME280;57617;51.988;5.854;2023-05-11T00:00:01;100976.34;;;17.14;71.44
70229;BME280;57617;51.988;5.854;2023-05-11T00:02:26;100981.84;;;17.14;71.23
70229;BME280;57617;51.988;5.854;2023-05-11T00:04:52;100979.94;;;17.14;71.37
70229;BME280;57617;51.988;5.854;2023-05-11T00:07:18;100980.19;;;17.13;71.29
70229;BME280;57617;51.988;5.854;2023-05-11T00:09:43;100982.94;;;17.13;71.40
70229;BME280;57617;51.988;5.854;2023-05-11T00:12:08;100972.25;;;17.11;71.44
70229;BME280;57617;51.988;5.854;2023-05-11T00:14:34;100974.19;;;17.11;71.52
70229;BME280;57617;51.988;5.854;2023-05-11T00:16:59;100973.34;;;17.10;71.64
70229;BME280;57617;51.988;5.854;2023-05-11T00:19:24;100960.16;;;17.07;71.43
70229;BME280;57617;51.988;5.854;2023-05-11T00:21:50;100961.84;;;17.03;71.52
70229;BME280;57617;51.988;5.854;2023-05-11T00:24:15;100972.56;;;17.05;71.50
70229;BME280;57617;51.988;5.854;2023-05-11T00:26:40;100972.25;;;17.06;71.71
70229;BME280;57617;51.988;5.854;2023-05-11T00:29:06;100962.91;;;17.07;71.48
70229;BME280;57617;51.988;5.854;2023-05-11T00:31:31;100966.75;;;17.06;71.59
70229;BME280;57617;51.988;5.854;2023-05-11T00:33:57;100956.91;;;17.05;71.65
70229;BME280;57617;51.988;5.854;2023-05-11T00:36:22;100958.28;;;17.03;71.92
70229;BME280;57617;51.988;5.854;2023-05-11T00:38:48;100960.22;;;17.02;71.82
70229;BME280;57617;51.988;5.854;2023-05-11T00:41:14;100958.84;;;17.00;71.46
70229;BME280;57617;51.988;5.854;2023-05-11T00:43:40;100965.13;;;17.00;71.99
70229;BME280;57617;51.988;5.854;2023-05-11T00:46:05;100960.75;;;16.99;71.83
70229;BME280;57617;51.988;5.854;2023-05-11T00:48:30;100959.66;;;17.00;71.95
70229;BME280;57617;51.988;5.854;2023-05-11T00:50:58;100945.16;;;16.90;71.66
70229;BME280;57617;51.988;5.854;2023-05-11T00:53:24;100964.06;;;16.96;71.80
70229;BME280;57617;51.988;5.854;2023-05-11T00:55:49;100959.13;;;16.93;71.80
70229;BME280;57617;51.988;5.854;2023-05-11T00:58:14;100957.50;;;16.88;72.16
70229;BME280;57617;51.988;5.854;2023-05-11T01:00:40;100952.56;;;16.84;71.98
70229;BME280;57617;51.988;5.854;2023-05-11T01:03:06;100959.69;;;16.85;71.87
70229;BME280;57617;51.988;5.854;2023-05-11T01:06:09;100960.78;;;16.89;72.38
70229;BME280;57617;51.988;5.854;2023-05-11T01:11:07;100965.19;;;16.85;71.89
70229;BME280;57617;51.988;5.854;2023-05-11T01:13:39;100972.59;;;16.90;71.89
70229;BME280;57617;51.988;5.854;2023-05-11T01:16:17;100968.19;;;16.89;71.97
70229;BME280;57617;51.988;5.854;2023-05-11T01:19:10;100973.97;;;16.88;72.09
70229;BME280;57617;51.988;5.854;2023-05-11T01:21:38;100977.78;;;16.86;71.84
70229;BME280;57617;51.988;5.854;2023-05-11T01:24:21;100972.31;;;16.86;72.07
70229;BME280;57617;51.988;5.854;2023-05-11T01:26:58;100971.50;;;16.86;72.19
70229;BME280;57617;51.988;5.854;2023-05-11T01:32:09;100973.13;;;16.87;72.09
70229;BME280;57617;51.988;5.854;2023-05-11T01:34:39;100967.38;;;16.83;71.95
70229;BME280;57617;51.988;5.854;2023-05-11T01:37:17;100973.41;;;16.80;72.34
70229;BME280;57617;51.988;5.854;2023-05-11T01:39:52;100969.03;;;16.79;72.50
70229;BME280;57617;51.988;5.854;2023-05-11T01:42:20;100975.06;;;16.81;72.30
70229;BME280;57617;51.988;5.854;2023-05-11T01:44:50;100981.09;;;16.83;72.20
70229;BME280;57617;51.988;5.854;2023-05-11T01:47:19;100979.16;;;16.84;72.27
70229;BME280;57617;51.988;5.854;2023-05-11T01:49:46;100971.78;;;16.84;72.23
70229;BME280;57617;51.988;5.854;2023-05-11T01:52:13;100959.16;;;16.78;72.44
70229;BME280;57617;51.988;5.854;2023-05-11T01:54:40;100981.91;;;16.84;72.33
70229;BME280;57617;51.988;5.854;2023-05-11T01:57:07;100983.59;;;16.85;72.46
70229;BME280;57617;51.988;5.854;2023-05-11T01:59:38;100974.25;;;16.86;72.48
70229;BME280;57617;51.988;5.854;2023-05-11T02:02:05;100988.22;;;16.89;72.22
70229;BME280;57617;51.988;5.854;2023-05-11T02:04:31;100985.47;;;16.89;72.10
70229;BME280;57617;51.988;5.854;2023-05-11T02:06:58;100980.81;;;16.90;72.30
70229;BME280;57617;51.988;5.854;2023-05-11T02:09:25;100986.31;;;16.90;72.29
70229;BME280;57617;51.988;5.854;2023-05-11T02:11:52;100992.34;;;16.92;72.48
70229;BME280;57617;51.988;5.854;2023-05-11T02:14:21;100991.22;;;16.93;72.26
70229;BME280;57617;51.988;5.854;2023-05-11T02:16:48;100992.06;;;16.93;72.37
70229;BME280;57617;51.988;5.854;2023-05-11T02:19:15;100986.31;;;16.90;72.31
70229;BME280;57617;51.988;5.854;2023-05-11T02:21:42;100993.72;;;16.89;72.53
70229;BME280;57617;51.988;5.854;2023-05-11T02:24:08;100993.72;;;16.89;72.48
70229;BME280;57617;51.988;5.854;2023-05-11T02:26:34;100995.63;;;16.89;72.52
70229;BME280;57617;51.988;5.854;2023-05-11T02:29:00;100988.22;;;16.89;72.62
70229;BME280;57617;51.988;5.854;2023-05-11T02:31:29;100991.81;;;16.90;72.70
70229;BME280;57617;51.988;5.854;2023-05-11T02:34:01;100992.34;;;16.92;72.47
70229;BME280;57617;51.988;5.854;2023-05-11T02:36:29;100989.34;;;16.88;72.34
70229;BME280;57617;51.988;5.854;2023-05-11T02:39:04;100985.22;;;16.86;72.67
70229;BME280;57617;51.988;5.854;2023-05-11T02:41:31;100981.91;;;16.84;72.61
70229;BME280;57617;51.988;5.854;2023-05-11T02:44:00;100984.41;;;16.80;72.67
70229;BME280;57617;51.988;5.854;2023-05-11T02:46:28;100981.66;;;16.80;72.90
70229;BME280;57617;51.988;5.854;2023-05-11T02:48:58;100987.97;;;16.81;72.75
70229;BME280;57617;51.988;5.854;2023-05-11T02:51:31;100984.97;;;16.83;73.04
70229;BME280;57617;51.988;5.854;2023-05-11T02:53:58;100985.50;;;16.84;72.73
70229;BME280;57617;51.988;5.854;2023-05-11T02:56:24;100989.34;;;16.83;72.87
70229;BME280;57617;51.988;5.854;2023-05-11T02:58:49;100980.53;;;16.81;72.87
70229;BME280;57617;51.988;5.854;2023-05-11T03:01:16;100979.47;;;16.83;72.59
70229;BME280;57617;51.988;5.854;2023-05-11T03:03:41;100982.50;;;16.81;72.66
70229;BME280;57617;51.988;5.854;2023-05-11T03:06:07;100980.53;;;16.81;72.61
70229;BME280;57617;51.988;5.854;2023-05-11T03:08:32;100989.09;;;16.80;72.54
70229;BME280;57617;51.988;5.854;2023-05-11T03:10:58;100976.75;;;16.77;72.86
70229;BME280;57617;51.988;5.854;2023-05-11T03:13:25;100984.97;;;16.77;72.66
70229;BME280;57617;51.988;5.854;2023-05-11T03:15:51;100988.25;;;16.79;72.72
70229;BME280;57617;51.988;5.854;2023-05-11T03:18:17;100986.34;;;16.80;72.71
70229;BME280;57617;51.988;5.854;2023-05-11T03:20:44;100980.03;;;16.74;72.83
70229;BME280;57617;51.988;5.854;2023-05-11T03:23:10;100981.66;;;16.75;72.75
70229;BME280;57617;51.988;5.854;2023-05-11T03:25:37;100978.13;;;16.75;72.70
70229;BME280;57617;51.988;5.854;2023-05-11T03:28:03;100962.72;;;16.69;72.38
70229;BME280;57617;51.988;5.854;2023-05-11T03:30:29;100970.69;;;16.75;72.72
70229;BME280;57617;51.988;5.854;2023-05-11T03:32:55;100969.88;;;16.70;73.00
70229;BME280;57617;51.988;5.854;2023-05-11T03:35:23;100981.66;;;16.75;73.00
70229;BME280;57617;51.988;5.854;2023-05-11T03:37:51;100970.41;;;16.77;72.93
70229;BME280;57617;51.988;5.854;2023-05-11T03:40:18;100972.88;;;16.78;72.83
70229;BME280;57617;51.988;5.854;2023-05-11T03:42:44;100966.56;;;16.78;72.94
70229;BME280;57617;51.988;5.854;2023-05-11T03:45:12;100971.78;;;16.74;72.76
70229;BME280;57617;51.988;5.854;2023-05-11T03:47:39;100972.91;;;16.73;73.27
70229;BME280;57617;51.988;5.854;2023-05-11T03:50:06;100970.97;;;16.74;72.74
70229;BME280;57617;51.988;5.854;2023-05-11T03:52:31;100969.31;;;16.73;72.90
70229;BME280;57617;51.988;5.854;2023-05-11T03:54:57;100966.31;;;16.74;72.66
70229;BME280;57617;51.988;5.854;2023-05-11T03:57:25;100971.25;;;16.73;72.78
70229;BME280;57617;51.988;5.854;2023-05-11T03:59:51;100971.25;;;16.73;73.06
70229;BME280;57617;51.988;5.854;2023-05-11T04:02:16;100974.53;;;16.69;72.91
70229;BME280;57617;51.988;5.854;2023-05-11T04:04:42;100975.66;;;16.68;72.92
70229;BME280;57617;51.988;5.854;2023-05-11T04:07:07;100978.66;;;16.72;72.79
70229;BME280;57617;51.988;5.854;2023-05-11T04:09:32;100985.50;;;16.74;72.65
70229;BME280;57617;51.988;5.854;2023-05-11T04:11:57;100980.84;;;16.75;72.80
70229;BME280;57617;51.988;5.854;2023-05-11T04:14:23;100980.03;;;16.74;72.75
70229;BME280;57617;51.988;5.854;2023-05-11T04:16:48;100979.19;;;16.74;72.79
70229;BME280;57617;51.988;5.854;2023-05-11T04:19:14;100978.94;;;16.70;72.80
70229;BME280;57617;51.988;5.854;2023-05-11T04:21:40;100982.22;;;16.73;72.68
70229;BME280;57617;51.988;5.854;2023-05-11T04:24:06;100986.63;;;16.73;72.86
70229;BME280;57617;51.988;5.854;2023-05-11T04:26:31;100990.16;;;16.74;72.92
70229;BME280;57617;51.988;5.854;2023-05-11T04:28:57;101007.47;;;16.74;72.85
70229;BME280;57617;51.988;5.854;2023-05-11T04:31:22;100998.69;;;16.73;72.62
70229;BME280;57617;51.988;5.854;2023-05-11T04:33:48;100997.03;;;16.71;72.91
70229;BME280;57617;51.988;5.854;2023-05-11T04:36:13;100996.50;;;16.69;72.86
70229;BME280;57617;51.988;5.854;2023-05-11T04:38:38;100995.94;;;16.73;72.72
70229;BME280;57617;51.988;5.854;2023-05-11T04:41:04;100992.63;;;16.70;72.85
70229;BME280;57617;51.988;5.854;2023-05-11T04:43:30;100987.41;;;16.69;72.64
70229;BME280;57617;51.988;5.854;2023-05-11T04:45:55;100996.75;;;16.78;72.81
70229;BME280;57617;51.988;5.854;2023-05-11T04:48:21;101000.06;;;16.80;72.81
70229;BME280;57617;51.988;5.854;2023-05-11T04:50:46;101003.59;;;16.80;72.67
70229;BME280;57617;51.988;5.854;2023-05-11T04:53:11;101001.13;;;16.79;72.92
70229;BME280;57617;51.988;5.854;2023-05-11T04:55:37;101007.19;;;16.81;72.89
70229;BME280;57617;51.988;5.854;2023-05-11T04:58:02;101008.81;;;16.82;72.50
70229;BME280;57617;51.988;5.854;2023-05-11T05:00:27;101006.91;;;16.83;72.60
70229;BME280;57617;51.988;5.854;2023-05-11T05:02:52;101016.78;;;16.83;72.48
70229;BME280;57617;51.988;5.854;2023-05-11T05:05:18;101018.16;;;16.81;72.57
70229;BME280;57617;51.988;5.854;2023-05-11T05:07:43;101014.84;;;16.79;72.73
70229;BME280;57617;51.988;5.854;2023-05-11T05:10:09;101014.84;;;16.79;72.66
70229;BME280;57617;51.988;5.854;2023-05-11T05:12:36;101020.91;;;16.81;72.66
70229;BME280;57617;51.988;5.854;2023-05-11T05:15:02;101010.72;;;16.81;72.68
70229;BME280;57617;51.988;5.854;2023-05-11T05:17:28;101014.84;;;16.79;72.65
70229;BME280;57617;51.988;5.854;2023-05-11T05:19:53;101014.84;;;16.79;72.36
70229;BME280;57617;51.988;5.854;2023-05-11T05:22:18;101022.53;;;16.77;72.32
70229;BME280;57617;51.988;5.854;2023-05-11T05:24:43;101022.81;;;16.75;72.40
70229;BME280;57617;51.988;5.854;2023-05-11T05:27:09;101025.56;;;16.75;72.63
70229;BME280;57617;51.988;5.854;2023-05-11T05:29:34;101034.63;;;16.76;72.67
70229;BME280;57617;51.988;5.854;2023-05-11T05:31:59;101031.03;;;16.75;72.59
70229;BME280;57617;51.988;5.854;2023-05-11T05:34:25;101032.69;;;16.76;72.68
70229;BME280;57617;51.988;5.854;2023-05-11T05:36:50;101039.00;;;16.77;72.79
70229;BME280;57617;51.988;5.854;2023-05-11T05:39:15;101029.41;;;16.74;72.65
70229;BME280;57617;51.988;5.854;2023-05-11T05:41:40;101038.75;;;16.73;72.77
70229;BME280;57617;51.988;5.854;2023-05-11T05:44:06;101043.38;;;16.73;72.81
70229;BME280;57617;51.988;5.854;2023-05-11T05:46:32;101034.88;;;16.74;72.62
70229;BME280;57617;51.988;5.854;2023-05-11T05:48:57;101046.13;;;16.78;72.79
70229;BME280;57617;51.988;5.854;2023-05-11T05:51:22;101050.50;;;16.79;72.87
70229;BME280;57617;51.988;5.854;2023-05-11T05:53:48;101041.75;;;16.77;72.98
70229;BME280;57617;51.988;5.854;2023-05-11T05:56:13;101057.38;;;16.81;72.92
70229;BME280;57617;51.988;5.854;2023-05-11T05:58:38;101054.91;;;16.85;72.99
70229;BME280;57617;51.988;5.854;2023-05-11T06:01:04;101058.19;;;16.87;72.85
70229;BME280;57617;51.988;5.854;2023-05-11T06:03:29;101051.63;;;16.83;72.99
70229;BME280;57617;51.988;5.854;2023-05-11T06:05:55;101026.94;;;16.68;72.91
70229;BME280;57617;51.988;5.854;2023-05-11T06:08:20;101060.94;;;16.87;72.91
70229;BME280;57617;51.988;5.854;2023-05-11T06:10:45;101060.09;;;16.91;72.79
70229;BME280;57617;51.988;5.854;2023-05-11T06:13:10;101066.69;;;16.95;72.91
70229;BME280;57617;51.988;5.854;2023-05-11T06:15:36;101060.66;;;16.93;73.02
70229;BME280;57617;51.988;5.854;2023-05-11T06:18:01;101059.03;;;16.98;72.89
70229;BME280;57617;51.988;5.854;2023-05-11T06:20:26;101064.50;;;17.02;72.92
70229;BME280;57617;51.988;5.854;2023-05-11T06:22:52;101068.31;;;17.06;72.81
70229;BME280;57617;51.988;5.854;2023-05-11T06:25:17;101059.28;;;17.11;72.77
70229;BME280;57617;51.988;5.854;2023-05-11T06:27:42;101067.78;;;17.14;72.70
70229;BME280;57617;51.988;5.854;2023-05-11T06:30:08;101065.56;;;17.16;72.70
70229;BME280;57617;51.988;5.854;2023-05-11T06:32:33;101062.00;;;17.21;72.75
70229;BME280;57617;51.988;5.854;2023-05-11T06:34:58;101061.69;;;17.22;72.73
70229;BME280;57617;51.988;5.854;2023-05-11T06:37:24;101071.03;;;17.16;72.56
70229;BME280;57617;51.988;5.854;2023-05-11T06:39:49;101063.09;;;17.15;72.83
70229;BME280;57617;51.988;5.854;2023-05-11T06:42:15;101065.56;;;17.16;72.73
70229;BME280;57617;51.988;5.854;2023-05-11T06:44:40;101060.91;;;17.17;73.00
70229;BME280;57617;51.988;5.854;2023-05-11T06:47:08;101042.78;;;17.16;73.08
70229;BME280;57617;51.988;5.854;2023-05-11T06:49:33;101061.13;;;17.30;72.78
70229;BME280;57617;51.988;5.854;2023-05-11T06:51:59;101063.34;;;17.39;72.80
70229;BME280;57617;51.988;5.854;2023-05-11T06:54:24;101063.34;;;17.44;72.81
70229;BME280;57617;51.988;5.854;2023-05-11T06:56:49;101066.59;;;17.51;72.79
70229;BME280;57617;51.988;5.854;2023-05-11T06:59:15;101064.13;;;17.54;72.44
70229;BME280;57617;51.988;5.854;2023-05-11T07:01:40;101056.13;;;17.58;72.20
70229;BME280;57617;51.988;5.854;2023-05-11T07:04:06;101060.81;;;17.57;72.25
70229;BME280;57617;51.988;5.854;2023-05-11T07:06:31;101064.09;;;17.59;72.36
70229;BME280;57617;51.988;5.854;2023-05-11T07:08:57;101062.19;;;17.60;72.38
70229;BME280;57617;51.988;5.854;2023-05-11T07:11:23;101056.94;;;17.63;72.32
70229;BME280;57617;51.988;5.854;2023-05-11T07:13:49;101063.53;;;17.62;71.95
70229;BME280;57617;51.988;5.854;2023-05-11T07:16:14;101062.72;;;17.62;72.04
70229;BME280;57617;51.988;5.854;2023-05-11T07:18:40;101055.56;;;17.66;72.01
70229;BME280;57617;51.988;5.854;2023-05-11T07:21:05;101068.44;;;17.70;71.83
70229;BME280;57617;51.988;5.854;2023-05-11T07:23:30;101068.16;;;17.72;71.83
70229;BME280;57617;51.988;5.854;2023-05-11T07:25:56;101071.47;;;17.68;71.61
70229;BME280;57617;51.988;5.854;2023-05-11T07:28:22;101073.94;;;17.70;71.48
70229;BME280;57617;51.988;5.854;2023-05-11T07:30:47;101077.53;;;17.71;71.59
70229;BME280;57617;51.988;5.854;2023-05-11T07:33:12;101076.94;;;17.73;71.42
70229;BME280;57617;51.988;5.854;2023-05-11T07:35:38;101077.78;;;17.74;71.08
70229;BME280;57617;51.988;5.854;2023-05-11T07:38:03;101075.31;;;17.73;71.16
70229;BME280;57617;51.988;5.854;2023-05-11T07:40:31;101074.72;;;17.81;71.01
70229;BME280;57617;51.988;5.854;2023-05-11T07:42:57;101081.56;;;17.88;71.07
70229;BME280;57617;51.988;5.854;2023-05-11T07:45:22;101085.94;;;17.89;70.76
70229;BME280;57617;51.988;5.854;2023-05-11T07:47:47;101086.78;;;17.90;70.87
70229;BME280;57617;51.988;5.854;2023-05-11T07:50:13;101082.66;;;17.92;70.56
70229;BME280;57617;51.988;5.854;2023-05-11T07:52:38;101088.44;;;17.91;70.50
70229;BME280;57617;51.988;5.854;2023-05-11T07:55:03;101085.13;;;17.88;70.76
70229;BME280;57617;51.988;5.854;2023-05-11T07:57:29;101083.72;;;17.91;70.56
70229;BME280;57617;51.988;5.854;2023-05-11T07:59:55;101088.94;;;17.92;70.54
70229;BME280;57617;51.988;5.854;2023-05-11T08:02:20;101089.78;;;17.93;70.24
70229;BME280;57617;51.988;5.854;2023-05-11T08:04:46;101088.94;;;17.92;70.17
70229;BME280;57617;51.988;5.854;2023-05-11T08:07:11;101087.56;;;17.95;70.19
70229;BME280;57617;51.988;5.854;2023-05-11T08:09:36;101091.94;;;17.96;70.18
70229;BME280;57617;51.988;5.854;2023-05-11T08:12:02;101083.72;;;17.96;69.85
70229;BME280;57617;51.988;5.854;2023-05-11T08:14:27;101088.66;;;17.99;69.69
70229;BME280;57617;51.988;5.854;2023-05-11T08:16:53;101093.53;;;18.07;70.07
70229;BME280;57617;51.988;5.854;2023-05-11T08:19:18;101090.25;;;18.10;69.74
70229;BME280;57617;51.988;5.854;2023-05-11T08:21:43;101092.13;;;18.14;69.29
70229;BME280;57617;51.988;5.854;2023-05-11T08:24:10;101091.53;;;18.23;69.24
70229;BME280;57617;51.988;5.854;2023-05-11T08:26:35;101092.03;;;18.29;68.84
70229;BME280;57617;51.988;5.854;2023-05-11T08:29:01;101094.50;;;18.31;68.76
70229;BME280;57617;51.988;5.854;2023-05-11T08:31:28;101088.75;;;18.33;68.91
70229;BME280;57617;51.988;5.854;2023-05-11T08:33:53;101098.34;;;18.40;68.99
70229;BME280;57617;51.988;5.854;2023-05-11T08:36:18;101090.09;;;18.40;69.18
70229;BME280;57617;51.988;5.854;2023-05-11T08:38:44;101084.56;;;18.45;68.37
70229;BME280;57617;51.988;5.854;2023-05-11T08:41:13;101089.75;;;18.52;68.30
70229;BME280;57617;51.988;5.854;2023-05-11T08:43:39;101091.06;;;18.59;68.03
70229;BME280;57617;51.988;5.854;2023-05-11T08:46:05;101086.28;;;18.70;68.03
70229;BME280;57617;51.988;5.854;2023-05-11T08:48:32;101090.41;;;18.72;67.77
70229;BME280;57617;51.988;5.854;2023-05-11T08:50:58;101084.59;;;18.74;67.60
70229;BME280;57617;51.988;5.854;2023-05-11T08:53:23;101082.09;;;18.77;67.56
70229;BME280;57617;51.988;5.854;2023-05-11T08:55:49;101082.38;;;18.76;67.55
70229;BME280;57617;51.988;5.854;2023-05-11T08:58:16;101083.25;;;18.71;67.56
70229;BME280;57617;51.988;5.854;2023-05-11T09:00:45;101083.25;;;18.71;67.67
70229;BME280;57617;51.988;5.854;2023-05-11T09:03:12;101082.72;;;18.69;67.95
70229;BME280;57617;51.988;5.854;2023-05-11T09:05:38;101083.00;;;18.68;67.65
70229;BME280;57617;51.988;5.854;2023-05-11T09:08:04;101091.56;;;18.66;67.79
70229;BME280;57617;51.988;5.854;2023-05-11T09:10:31;101086.03;;;18.66;67.76
70229;BME280;57617;51.988;5.854;2023-05-11T09:12:57;101098.44;;;18.64;67.76
70229;BME280;57617;51.988;5.854;2023-05-11T09:15:22;101091.31;;;18.63;67.56
70229;BME280;57617;51.988;5.854;2023-05-11T09:17:47;101088.28;;;18.64;67.67
70229;BME280;57617;51.988;5.854;2023-05-11T09:20:12;101084.16;;;18.62;67.35
70229;BME280;57617;51.988;5.854;2023-05-11T09:22:45;101091.28;;;18.68;67.51
70229;BME280;57617;51.988;5.854;2023-05-11T09:25:12;101085.22;;;18.66;67.41
70229;BME280;57617;51.988;5.854;2023-05-11T09:27:45;101086.03;;;18.66;67.16
70229;BME280;57617;51.988;5.854;2023-05-11T09:30:18;101093.19;;;18.67;66.72
70229;BME280;57617;51.988;5.854;2023-05-11T09:32:54;101096.78;;;18.68;67.19
70229;BME280;57617;51.988;5.854;2023-05-11T09:35:23;101099.25;;;18.69;67.04
70229;BME280;57617;51.988;5.854;2023-05-11T09:40:26;101098.97;;;18.66;66.82
70229;BME280;57617;51.988;5.854;2023-05-11T09:42:51;101103.72;;;18.60;66.83
70229;BME280;57617;51.988;5.854;2023-05-11T09:45:41;101095.44;;;18.60;65.99
70229;BME280;57617;51.988;5.854;2023-05-11T09:48:13;101100.97;;;18.60;66.67
70229;BME280;57617;51.988;5.854;2023-05-11T09:50:49;101103.75;;;18.55;66.73
70229;BME280;57617;51.988;5.854;2023-05-11T09:53:15;101093.34;;;18.47;66.90
70229;BME280;57617;51.988;5.854;2023-05-11T09:55:54;101096.38;;;18.46;67.01
70229;BME280;57617;51.988;5.854;2023-05-11T09:58:19;101097.47;;;18.45;67.19
70229;BME280;57617;51.988;5.854;2023-05-11T10:00:49;101095.56;;;18.45;67.26
70229;BME280;57617;51.988;5.854;2023-05-11T10:03:18;101100.78;;;18.47;67.05
70229;BME280;57617;51.988;5.854;2023-05-11T10:05:57;101100.78;;;18.47;67.32
70229;BME280;57617;51.988;5.854;2023-05-11T10:08:28;101096.69;;;18.44;67.33
70229;BME280;57617;51.988;5.854;2023-05-11T10:10:54;101097.47;;;18.45;67.21
70229;BME280;57617;51.988;5.854;2023-05-11T10:13:20;101091.16;;;18.44;67.06
70229;BME280;57617;51.988;5.854;2023-05-11T10:15:50;101097.47;;;18.45;67.43
70229;BME280;57617;51.988;5.854;2023-05-11T10:18:16;101102.69;;;18.46;67.28
70229;BME280;57617;51.988;5.854;2023-05-11T10:20:41;101102.69;;;18.46;67.31
70229;BME280;57617;51.988;5.854;2023-05-11T10:23:07;101104.06;;;18.49;67.44
70229;BME280;57617;51.988;5.854;2023-05-11T10:25:34;101105.69;;;18.50;67.48
70229;BME280;57617;51.988;5.854;2023-05-11T10:28:00;101102.69;;;18.46;67.45
70229;BME280;57617;51.988;5.854;2023-05-11T10:30:26;101094.44;;;18.46;67.44
70229;BME280;57617;51.988;5.854;2023-05-11T10:32:54;101099.66;;;18.48;67.46
70229;BME280;57617;51.988;5.854;2023-05-11T10:35:20;101104.06;;;18.49;67.48
70229;BME280;57617;51.988;5.854;2023-05-11T10:37:45;101100.19;;;18.50;67.53
70229;BME280;57617;51.988;5.854;2023-05-11T10:40:12;101112.84;;;18.51;67.27
70229;BME280;57617;51.988;5.854;2023-05-11T11:01:51;101116.41;;;18.51;67.79
70229;BME280;57617;51.988;5.854;2023-05-11T11:04:19;101118.91;;;18.53;67.84
70229;BME280;57617;51.988;5.854;2023-05-11T11:06:44;101109.53;;;18.54;67.63
70229;BME280;57617;51.988;5.854;2023-05-11T11:09:14;101107.09;;;18.47;67.69
70229;BME280;57617;51.988;5.854;2023-05-11T11:11:42;101114.25;;;18.43;67.69
70229;BME280;57617;51.988;5.854;2023-05-11T11:14:11;101107.72;;;18.39;68.00
70229;BME280;57617;51.988;5.854;2023-05-11T11:16:37;101108.53;;;18.35;68.08
70229;BME280;57617;51.988;5.854;2023-05-11T11:21:57;101109.13;;;18.27;67.93
70229;BME280;57617;51.988;5.854;2023-05-11T11:24:42;101113.03;;;18.21;68.33
70229;BME280;57617;51.988;5.854;2023-05-11T11:27:08;101115.78;;;18.16;68.33
70229;BME280;57617;51.988;5.854;2023-05-11T11:29:35;101111.38;;;18.14;68.26
70229;BME280;57617;51.988;5.854;2023-05-11T11:34:45;101116.66;;;18.06;68.34
70229;BME280;57617;51.988;5.854;2023-05-11T11:37:13;101110.34;;;18.06;68.56
70229;BME280;57617;51.988;5.854;2023-05-11T11:42:09;101110.06;;;18.02;69.14
70229;BME280;57617;51.988;5.854;2023-05-11T11:44:35;101109.53;;;18.00;69.20
70229;BME280;57617;51.988;5.854;2023-05-11T11:47:13;101109.31;;;17.92;69.19
70229;BME280;57617;51.988;5.854;2023-05-11T11:49:43;101112.94;;;17.82;69.61
70229;BME280;57617;51.988;5.854;2023-05-11T11:54:59;101110.72;;;17.79;69.76
70229;BME280;57617;51.988;5.854;2023-05-11T12:00:00;101113.72;;;17.83;69.89
70229;BME280;57617;51.988;5.854;2023-05-11T12:02:26;101109.91;;;17.78;69.94
70229;BME280;57617;51.988;5.854;2023-05-11T12:04:56;101105.22;;;17.79;70.30
70229;BME280;57617;51.988;5.854;2023-05-11T12:07:23;101103.63;;;17.73;69.87
70229;BME280;57617;51.988;5.854;2023-05-11T12:09:49;101104.41;;;17.73;70.23
70229;BME280;57617;51.988;5.854;2023-05-11T12:12:17;101097.31;;;17.67;70.47
70229;BME280;57617;51.988;5.854;2023-05-11T12:14:43;101114.03;;;17.76;70.69
70229;BME280;57617;51.988;5.854;2023-05-11T12:17:14;101105.78;;;17.76;70.79
70229;BME280;57617;51.988;5.854;2023-05-11T12:19:41;101100.25;;;17.81;70.95
70229;BME280;57617;51.988;5.854;2023-05-11T12:22:07;101092.91;;;17.72;70.83
70229;BME280;57617;51.988;5.854;2023-05-11T12:24:35;101098.63;;;17.80;71.10
70229;BME280;57617;51.988;5.854;2023-05-11T12:27:02;101100.56;;;17.85;71.18
70229;BME280;57617;51.988;5.854;2023-05-11T12:29:27;101101.09;;;17.87;71.54
70229;BME280;57617;51.988;5.854;2023-05-11T12:31:52;101098.59;;;17.90;71.12
70229;BME280;57617;51.988;5.854;2023-05-11T12:34:20;101098.84;;;17.93;71.45
70229;BME280;57617;51.988;5.854;2023-05-11T12:36:50;101099.09;;;17.97;71.53
70229;BME280;57617;51.988;5.854;2023-05-11T12:39:20;101099.66;;;17.99;71.54
70229;BME280;57617;51.988;5.854;2023-05-11T12:41:47;101106.22;;;18.03;71.14
70229;BME280;57617;51.988;5.854;2023-05-11T12:44:14;101101.25;;;18.05;71.41
70229;BME280;57617;51.988;5.854;2023-05-11T12:46:40;101098.78;;;18.03;71.37
70229;BME280;57617;51.988;5.854;2023-05-11T12:49:06;101088.09;;;17.97;71.68
70229;BME280;57617;51.988;5.854;2023-05-11T12:51:47;101094.41;;;18.02;71.85
70229;BME280;57617;51.988;5.854;2023-05-11T12:54:32;101097.13;;;18.08;72.30
70229;BME280;57617;51.988;5.854;2023-05-11T12:56:59;101099.03;;;18.07;71.81
70229;BME280;57617;51.988;5.854;2023-05-11T12:59:29;101086.97;;;18.08;71.91
70229;BME280;57617;51.988;5.854;2023-05-11T13:02:10;101087.78;;;18.08;72.67
70229;BME280;57617;51.988;5.854;2023-05-11T13:04:38;101084.50;;;18.07;72.21
70229;BME280;57617;51.988;5.854;2023-05-11T13:07:04;101090.53;;;18.08;72.32
70229;BME280;57617;51.988;5.854;2023-05-11T13:09:29;101085.81;;;18.14;72.41
70229;BME280;57617;51.988;5.854;2023-05-11T13:14:32;101080.78;;;18.26;72.36
70229;BME280;57617;51.988;5.854;2023-05-11T13:16:57;101081.88;;;18.30;72.34
70229;BME280;57617;51.988;5.854;2023-05-11T13:19:26;101083.78;;;18.35;72.72
70229;BME280;57617;51.988;5.854;2023-05-11T13:21:55;101077.44;;;18.39;72.53
70229;BME280;57617;51.988;5.854;2023-05-11T13:24:22;101083.72;;;18.45;72.34
70229;BME280;57617;51.988;5.854;2023-05-11T13:26:47;101085.31;;;18.51;72.27
70229;BME280;57617;51.988;5.854;2023-05-11T13:29:13;101080.63;;;18.56;72.20
70229;BME280;57617;51.988;5.854;2023-05-11T13:31:46;101078.66;;;18.62;72.37